createdAt,value
2014-09-10T00:00:05.240Z,60.6
2014-09-10T00:01:09.929Z,60.3
2014-09-10T00:02:14.900Z,60.17
2014-09-10T00:03:19.886Z,59.98
2014-09-10T00:04:24.576Z,59.74
2014-09-10T00:05:29.250Z,59.46
2014-09-10T00:06:33.939Z,59.18
2014-09-10T00:07:38.644Z,59.44
2014-09-10T00:08:43.631Z,59.18
2014-09-10T00:09:48.618Z,58.94
2014-09-10T00:10:53.291Z,58.63
2014-09-10T00:11:57.981Z,59.35
2014-09-10T00:13:02.968Z,59.58
2014-09-10T00:14:07.656Z,59.42
2014-09-10T00:15:12.347Z,59.74
2014-09-10T00:16:17.020Z,59.16
2014-09-10T00:17:21.710Z,58.78
2014-09-10T00:18:26.400Z,59.21
2014-09-10T00:19:31.090Z,59.85
2014-09-10T00:20:35.779Z,60.08
2014-09-10T00:21:40.454Z,60.1
2014-09-10T00:22:45.142Z,60.39
2014-09-10T00:23:49.833Z,60.76
2014-09-10T00:24:54.522Z,60.08
2014-09-10T00:25:59.195Z,59.8
2014-09-10T00:27:03.901Z,60.08
2014-09-10T00:28:08.575Z,60.44
2014-09-10T00:29:13.263Z,59.34
2014-09-10T00:30:18.282Z,58.68
2014-09-10T00:31:22.972Z,58.85
2014-09-10T00:32:27.661Z,59.26
2014-09-10T00:33:32.335Z,58.39
2014-09-10T00:34:37.024Z,58.18
2014-09-10T00:35:41.714Z,58.55
2014-09-10T00:36:46.013Z,59.31
2014-09-10T00:37:50.702Z,58.86
2014-09-10T00:38:55.392Z,58.49
2014-09-10T00:40:00.066Z,58.17
2014-09-10T00:41:04.756Z,57.94
2014-09-10T00:42:09.445Z,58.58
2014-09-10T00:43:14.151Z,58.83
2014-09-10T00:44:18.840Z,59.4
2014-09-10T00:45:23.514Z,58.86
2014-09-10T00:46:28.234Z,60.74
2014-09-10T00:47:32.924Z,60.32
2014-09-10T00:48:37.614Z,60.51
2014-09-10T00:49:42.288Z,60.56
2014-09-10T00:50:47.274Z,60.12
2014-09-10T00:51:51.964Z,59.79
2014-09-10T00:52:56.951Z,58.72
2014-09-10T00:54:01.624Z,58.82
2014-09-10T00:55:06.313Z,59.03
2014-09-10T00:56:10.988Z,58.65
2014-09-10T00:57:15.677Z,58.4
2014-09-10T00:58:20.367Z,58.54
2014-09-10T00:59:25.041Z,58.62
2014-09-10T01:00:29.730Z,58.8
2014-09-10T01:01:34.420Z,58.85
2014-09-10T01:02:39.094Z,58.5
2014-09-10T01:03:43.784Z,58.95
2014-09-10T01:04:48.457Z,58.96
2014-09-10T01:05:53.147Z,59.23
2014-09-10T01:06:57.836Z,59.1
2014-09-10T01:08:02.510Z,59.51
2014-09-10T01:09:07.200Z,59.34
2014-09-10T01:10:11.889Z,59.28
2014-09-10T01:11:16.564Z,59.44
2014-09-10T01:12:21.253Z,60.15
2014-09-10T01:13:25.943Z,59.7
2014-09-10T01:14:30.930Z,59.46
2014-09-10T01:15:35.603Z,59.48
2014-09-10T01:16:40.293Z,59.65
2014-09-10T01:17:44.982Z,59.58
2014-09-10T01:18:49.656Z,59.04
2014-09-10T01:19:54.346Z,58.32
2014-09-10T01:20:58.348Z,58.31
2014-09-10T01:22:03.022Z,59.34
2014-09-10T01:23:07.711Z,59.67
2014-09-10T01:24:12.401Z,60.01
2014-09-10T01:25:17.076Z,59.06
2014-09-10T01:26:21.764Z,58.68
2014-09-10T01:27:26.750Z,59.28
2014-09-10T01:28:31.425Z,59.61
2014-09-10T01:29:36.114Z,59.53
2014-09-10T01:30:40.788Z,59.56
2014-09-10T01:31:45.478Z,59.45
2014-09-10T01:32:50.167Z,60.24
2014-09-10T01:33:54.857Z,59.47
2014-09-10T01:34:59.828Z,59.16
2014-09-10T01:36:04.517Z,59.45
2014-09-10T01:37:09.207Z,59.52
2014-09-10T01:38:13.881Z,59.39
2014-09-10T01:39:18.570Z,59.33
2014-09-10T01:40:23.244Z,59.29
2014-09-10T01:41:27.949Z,60.16
2014-09-10T01:42:32.624Z,59.61
2014-09-10T01:43:37.610Z,59.69
2014-09-10T01:44:42.300Z,59.26
2014-09-10T01:45:46.974Z,59.35
2014-09-10T01:46:51.960Z,59.45
2014-09-10T01:47:56.947Z,59.94
2014-09-10T01:49:01.621Z,59.67
2014-09-10T01:50:06.326Z,59.31
2014-09-10T01:51:11.001Z,58.71
2014-09-10T01:52:15.689Z,58.51
2014-09-10T01:53:20.363Z,59.71
2014-09-10T01:54:25.053Z,59.9
2014-09-10T01:55:30.039Z,59.48
2014-09-10T01:56:34.713Z,59.25
2014-09-10T01:57:39.700Z,59.89
2014-09-10T01:58:44.389Z,60.85
2014-09-10T01:59:49.360Z,60.74
2014-09-10T02:00:54.049Z,60.34
2014-09-10T02:01:59.036Z,60.45
2014-09-10T02:03:03.710Z,59.96
2014-09-10T02:04:08.400Z,59.96
2014-09-10T02:05:13.089Z,59.75
2014-09-10T02:06:17.763Z,60.23
2014-09-10T02:07:22.749Z,59.78
2014-09-10T02:08:27.439Z,59.54
2014-09-10T02:09:32.113Z,58.97
2014-09-10T02:10:36.802Z,59.31
2014-09-10T02:11:41.773Z,59.92
2014-09-10T02:12:46.072Z,59.9
2014-09-10T02:13:51.058Z,59.35
2014-09-10T02:14:55.733Z,59.33
2014-09-10T02:16:00.423Z,59.16
2014-09-10T02:17:05.096Z,59.62
2014-09-10T02:18:09.786Z,59.54
2014-09-10T02:19:14.772Z,59.64
2014-09-10T02:20:19.759Z,60.58
2014-09-10T02:21:24.434Z,60.46
2014-09-10T02:22:29.122Z,59.78
2014-09-10T02:23:34.108Z,59.37
2014-09-10T02:24:39.080Z,59.09
2014-09-10T02:25:43.769Z,58.84
2014-09-10T02:26:48.459Z,59.25
2014-09-10T02:27:53.742Z,59.53
2014-09-10T02:28:58.744Z,59.49
2014-09-10T02:30:03.434Z,60.46
2014-09-10T02:31:08.108Z,60.32
2014-09-10T02:32:12.797Z,60.43
2014-09-10T02:33:17.487Z,60.58
2014-09-10T02:34:22.161Z,60.37
2014-09-10T02:35:27.148Z,59.99
2014-09-10T02:36:31.821Z,60.75
2014-09-10T02:37:36.511Z,61.5
2014-09-10T02:38:41.201Z,60.93
2014-09-10T02:39:45.874Z,60.81
2014-09-10T02:40:50.563Z,60.17
2014-09-10T02:41:55.238Z,60.3
2014-09-10T02:42:59.927Z,60.92
2014-09-10T02:44:04.617Z,60.86
2014-09-10T02:45:09.306Z,60.41
2014-09-10T02:46:13.981Z,60.55
2014-09-10T02:47:18.670Z,60.62
2014-09-10T02:48:23.360Z,61.03
2014-09-10T02:49:28.033Z,61.25
2014-09-10T02:50:32.723Z,61.2
2014-09-10T02:51:37.397Z,61.21
2014-09-10T02:52:42.086Z,61.19
2014-09-10T02:53:46.760Z,60.97
2014-09-10T02:54:51.450Z,61.1
2014-09-10T02:55:56.437Z,60.76
2014-09-10T02:57:01.110Z,60.1
2014-09-10T02:58:05.800Z,59.95
2014-09-10T02:59:10.474Z,60.1
2014-09-10T03:00:15.163Z,60.25
2014-09-10T03:01:19.837Z,60.55
2014-09-10T03:02:24.824Z,60.85
2014-09-10T03:03:29.498Z,60.47
2014-09-10T03:04:34.187Z,60.24
2014-09-10T03:05:39.174Z,60.45
2014-09-10T03:06:43.848Z,59.66
2014-09-10T03:07:48.537Z,59.41
2014-09-10T03:08:53.227Z,60.32
2014-09-10T03:09:57.902Z,59.79
2014-09-10T03:11:02.591Z,59.87
2014-09-10T03:12:07.561Z,59.82
2014-09-10T03:13:12.251Z,60.35
2014-09-10T03:14:16.941Z,60.18
2014-09-10T03:15:21.911Z,59.97
2014-09-10T03:16:26.601Z,60.3
2014-09-10T03:17:31.291Z,60.86
2014-09-10T03:18:35.980Z,60.33
2014-09-10T03:19:40.951Z,60.08
2014-09-10T03:20:45.640Z,60.63
2014-09-10T03:21:50.611Z,61.04
2014-09-10T03:22:55.302Z,60.85
2014-09-10T03:24:00.288Z,60.08
2014-09-10T03:25:05.258Z,60.5
2014-09-10T03:26:09.948Z,59.99
2014-09-10T03:27:14.621Z,59.98
2014-09-10T03:28:19.312Z,60.22
2014-09-10T03:29:24.298Z,60.15
2014-09-10T03:30:28.971Z,60.16
2014-09-10T03:31:33.661Z,60.6
2014-09-10T03:32:38.351Z,60.88
2014-09-10T03:33:43.025Z,60.85
2014-09-10T03:34:48.011Z,60.36
2014-09-10T03:35:52.685Z,60.59
2014-09-10T03:36:57.375Z,61.23
2014-09-10T03:38:02.048Z,61.75
2014-09-10T03:39:06.738Z,61.41
2014-09-10T03:40:11.427Z,60.61
2014-09-10T03:41:16.117Z,60.33
2014-09-10T03:42:21.088Z,60.42
2014-09-10T03:43:25.778Z,59.85
2014-09-10T03:44:30.468Z,60.01
2014-09-10T03:45:35.438Z,59.73
2014-09-10T03:46:40.425Z,60.38
2014-09-10T03:47:45.395Z,60.33
2014-09-10T03:48:50.085Z,60.61
2014-09-10T03:49:54.759Z,60.7
2014-09-10T03:50:59.745Z,60.61
2014-09-10T03:52:04.435Z,60.45
2014-09-10T03:53:09.406Z,60.54
2014-09-10T03:54:14.095Z,60.66
2014-09-10T03:55:18.784Z,60.75
2014-09-10T03:56:23.756Z,60.59
2014-09-10T03:57:28.445Z,61.02
2014-09-10T03:58:33.120Z,60.75
2014-09-10T03:59:37.809Z,60.92
2014-09-10T04:00:42.483Z,60.76
2014-09-10T04:01:47.766Z,60.97
2014-09-10T04:02:52.456Z,60.72
2014-09-10T04:03:57.130Z,60.06
2014-09-10T04:05:01.819Z,60.53
2014-09-10T04:06:06.493Z,60.82
2014-09-10T04:07:11.479Z,60.65
2014-09-10T04:08:15.481Z,61.51
2014-09-10T04:09:20.155Z,61.06
2014-09-10T04:10:25.142Z,61.08
2014-09-10T04:11:29.816Z,60.65
2014-09-10T04:12:34.505Z,61.18
2014-09-10T04:13:39.179Z,61.26
2014-09-10T04:14:43.869Z,60.46
2014-09-10T04:15:48.559Z,60.93
2014-09-10T04:16:53.232Z,60.95
2014-09-10T04:17:57.922Z,61.25
2014-09-10T04:19:02.893Z,61.58
2014-09-10T04:20:07.582Z,60.97
2014-09-10T04:21:12.272Z,60.98
2014-09-10T04:22:17.243Z,61.07
2014-09-10T04:23:21.932Z,61
2014-09-10T04:24:26.606Z,61.47
2014-09-10T04:25:31.296Z,60.57
2014-09-10T04:26:35.985Z,60.34
2014-09-10T04:27:39.988Z,60.68
2014-09-10T04:28:44.661Z,61.08
2014-09-10T04:29:49.351Z,61.26
2014-09-10T04:30:54.025Z,61.72
2014-09-10T04:31:58.715Z,61.44
2014-09-10T04:33:03.388Z,61.24
2014-09-10T04:34:08.078Z,61.33
2014-09-10T04:35:12.752Z,61.15
2014-09-10T04:36:18.035Z,61.98
2014-09-10T04:37:22.725Z,62.22
2014-09-10T04:38:27.399Z,62.04
2014-09-10T04:39:32.088Z,61.74
2014-09-10T04:40:36.762Z,62.18
2014-09-10T04:41:41.453Z,61.95
2014-09-10T04:42:46.142Z,61.46
2014-09-10T04:43:50.815Z,60.84
2014-09-10T04:44:55.505Z,60.56
2014-09-10T04:46:00.195Z,61.17
2014-09-10T04:47:04.869Z,61
2014-09-10T04:48:09.557Z,61.49
2014-09-10T04:49:14.232Z,61.94
2014-09-10T04:50:18.922Z,62.45
2014-09-10T04:51:23.612Z,61.52
2014-09-10T04:52:28.285Z,61.66
2014-09-10T04:53:32.976Z,62.45
2014-09-10T04:54:37.649Z,62.5
2014-09-10T04:55:42.338Z,61.76
2014-09-10T04:56:47.324Z,61.69
2014-09-10T04:57:52.296Z,61.88
2014-09-10T04:58:56.986Z,61.46
2014-09-10T05:00:01.659Z,61.78
2014-09-10T05:01:06.349Z,62.57
2014-09-10T05:02:11.038Z,61.96
2014-09-10T05:03:15.712Z,61.74
2014-09-10T05:04:20.402Z,60.42
2014-09-10T05:05:25.388Z,62.49
2014-09-10T05:06:30.078Z,62.26
2014-09-10T05:07:34.753Z,62.42
2014-09-10T05:08:39.441Z,62.59
2014-09-10T05:09:44.115Z,61.98
2014-09-10T05:10:48.805Z,60.92
2014-09-10T05:11:53.495Z,60.85
2014-09-10T05:12:58.480Z,61.32
2014-09-10T05:14:03.155Z,61.58
2014-09-10T05:15:07.845Z,60.69
2014-09-10T05:16:12.534Z,60.54
2014-09-10T05:17:17.224Z,60.64
2014-09-10T05:18:21.898Z,61.37
2014-09-10T05:19:26.587Z,62.48
2014-09-10T05:20:31.277Z,61.42
2014-09-10T05:21:35.966Z,61.22
2014-09-10T05:22:40.937Z,60.69
2014-09-10T05:23:45.626Z,60.9
2014-09-10T05:24:50.316Z,60.91
2014-09-10T05:25:55.005Z,61.2
2014-09-10T05:26:59.680Z,61.24
2014-09-10T05:28:04.666Z,61.42
2014-09-10T05:29:09.356Z,61.11
2014-09-10T05:30:14.046Z,61.29
2014-09-10T05:31:18.735Z,61.31
2014-09-10T05:32:23.721Z,61.37
2014-09-10T05:33:28.395Z,62.43
2014-09-10T05:34:33.085Z,62.35
2014-09-10T05:35:38.071Z,62.22
2014-09-10T05:36:43.058Z,62.04
2014-09-10T05:37:47.060Z,62.26
2014-09-10T05:38:51.750Z,62.44
2014-09-10T05:39:56.735Z,62.12
2014-09-10T05:41:01.707Z,62.03
2014-09-10T05:42:06.693Z,62.32
2014-09-10T05:43:11.383Z,62.37
2014-09-10T05:44:16.353Z,62.5
2014-09-10T05:45:21.043Z,62.33
2014-09-10T05:46:25.732Z,62.52
2014-09-10T05:47:30.421Z,62.56
2014-09-10T05:48:35.393Z,62.63
2014-09-10T05:49:40.083Z,62.79
2014-09-10T05:50:44.772Z,63.08
2014-09-10T05:51:49.462Z,62.67
2014-09-10T05:52:54.136Z,62.58
2014-09-10T05:53:59.122Z,62.59
2014-09-10T05:55:03.811Z,62.36
2014-09-10T05:56:08.485Z,62.51
2014-09-10T05:57:13.175Z,63.09
2014-09-10T05:58:17.865Z,63.12
2014-09-10T05:59:22.555Z,62.94
2014-09-10T06:00:27.525Z,62.5
2014-09-10T06:01:32.215Z,62.11
2014-09-10T06:02:36.904Z,61.91
2014-09-10T06:03:41.594Z,62.04
2014-09-10T06:04:46.268Z,62.83
2014-09-10T06:05:50.957Z,63.45
2014-09-10T06:06:55.944Z,63.34
2014-09-10T06:08:00.619Z,63.69
2014-09-10T06:09:05.604Z,63.32
2014-09-10T06:10:10.293Z,62.56
2014-09-10T06:11:14.968Z,62.36
2014-09-10T06:12:19.657Z,62.43
2014-09-10T06:13:24.346Z,62.16
2014-09-10T06:14:29.083Z,62
2014-09-10T06:15:33.758Z,62.02
2014-09-10T06:16:38.447Z,61.79
2014-09-10T06:17:43.433Z,62.24
2014-09-10T06:18:48.123Z,61.99
2014-09-10T06:19:52.797Z,61.7
2014-09-10T06:20:57.502Z,62.29
2014-09-10T06:22:02.191Z,62.03
2014-09-10T06:23:06.881Z,62.32
2014-09-10T06:24:11.555Z,62.78
2014-09-10T06:25:16.542Z,62.69
2014-09-10T06:26:21.231Z,63.48
2014-09-10T06:27:25.921Z,63.27
2014-09-10T06:28:30.595Z,62.1
2014-09-10T06:29:35.581Z,62.71
2014-09-10T06:30:40.568Z,62.96
2014-09-10T06:31:45.538Z,64.09
2014-09-10T06:32:50.228Z,63.65
2014-09-10T06:33:55.214Z,63.77
2014-09-10T06:34:59.888Z,62.97
2014-09-10T06:36:04.578Z,62.64
2014-09-10T06:37:09.267Z,61.98
2014-09-10T06:38:13.941Z,61.72
2014-09-10T06:39:18.647Z,62.29
2014-09-10T06:40:23.930Z,62.18
2014-09-10T06:41:28.604Z,61.66
2014-09-10T06:42:33.590Z,62.1
2014-09-10T06:43:38.280Z,61.9
2014-09-10T06:44:42.970Z,61.47
2014-09-10T06:45:47.643Z,61.26
2014-09-10T06:46:52.333Z,61.85
2014-09-10T06:47:57.023Z,62.17
2014-09-10T06:49:01.697Z,61.86
2014-09-10T06:50:06.386Z,62.02
2014-09-10T06:51:11.076Z,61.4
2014-09-10T06:52:15.749Z,62.05
2014-09-10T06:53:20.439Z,61.74
2014-09-10T06:54:25.128Z,61.31
2014-09-10T06:55:29.819Z,60.97
2014-09-10T06:56:34.508Z,60.65
2014-09-10T06:57:39.197Z,60.78
2014-09-10T06:58:43.871Z,60.68
2014-09-10T06:59:48.857Z,60.48
2014-09-10T07:00:53.532Z,61.24
2014-09-10T07:01:58.518Z,61.56
2014-09-10T07:03:03.192Z,61.05
2014-09-10T07:04:07.882Z,61.18
2014-09-10T07:05:12.556Z,60.61
2014-09-10T07:06:17.245Z,60.91
2014-09-10T07:07:21.919Z,61.05
2014-09-10T07:08:26.609Z,60.31
2014-09-10T07:09:31.580Z,60.4
2014-09-10T07:10:36.269Z,61.02
2014-09-10T07:11:41.240Z,60.8
2014-09-10T07:12:46.227Z,61.33
2014-09-10T07:13:50.900Z,60.79
2014-09-10T07:14:55.887Z,60.51
2014-09-10T07:16:00.576Z,60.58
2014-09-10T07:17:05.266Z,60.21
2014-09-10T07:18:09.940Z,60.49
2014-09-10T07:19:14.630Z,60.19
2014-09-10T07:20:19.303Z,60.51
2014-09-10T07:21:23.993Z,60.18
2014-09-10T07:22:28.667Z,59.15
2014-09-10T07:23:33.356Z,58.92
2014-09-10T07:24:38.030Z,58.94
2014-09-10T07:25:42.720Z,59.73
2014-09-10T07:26:47.395Z,60.26
2014-09-10T07:27:52.083Z,60.17
2014-09-10T07:28:56.773Z,59.69
2014-09-10T07:30:01.744Z,59.12
2014-09-10T07:31:06.730Z,59.49
2014-09-10T07:32:11.405Z,59.61
2014-09-10T07:33:16.094Z,59.4
2014-09-10T07:34:20.768Z,60.46
2014-09-10T07:35:25.754Z,60.27
2014-09-10T07:36:30.428Z,59.77
2014-09-10T07:37:35.118Z,59.13
2014-09-10T07:38:39.793Z,58.63
2014-09-10T07:39:44.481Z,58.41
2014-09-10T07:40:49.155Z,58.25
2014-09-10T07:41:53.861Z,57.48
2014-09-10T07:42:58.863Z,57.03
2014-09-10T07:44:03.553Z,57.82
2014-09-10T07:45:08.523Z,58.01
2014-09-10T07:46:13.509Z,58.8
2014-09-10T07:47:18.184Z,57.95
2014-09-10T07:48:22.873Z,57.71
2014-09-10T07:49:27.563Z,57.11
2014-09-10T07:50:32.236Z,56.27
2014-09-10T07:51:37.223Z,56.69
2014-09-10T07:52:41.912Z,57.35
2014-09-10T07:53:46.883Z,57.43
2014-09-10T07:54:51.574Z,58.06
2014-09-10T07:55:56.252Z,57.97
2014-09-10T07:57:00.986Z,57.56
2014-09-10T07:58:05.704Z,57.79
2014-09-10T07:59:10.735Z,57.56
2014-09-10T08:00:15.454Z,57.88
2014-09-10T08:01:20.174Z,58.21
2014-09-10T08:02:24.863Z,57.25
2014-09-10T08:03:29.568Z,57.67
2014-09-10T08:04:34.570Z,56.7
2014-09-10T08:05:39.276Z,56.61
2014-09-10T08:06:43.973Z,56.43
2014-09-10T08:07:48.652Z,56.72
2014-09-10T08:08:53.348Z,56.06
2014-09-10T08:09:58.044Z,55.95
2014-09-10T08:11:02.722Z,55.64
2014-09-10T08:12:07.414Z,54.78
2014-09-10T08:13:12.106Z,55.36
2014-09-10T08:14:16.781Z,55.42
2014-09-10T08:15:21.472Z,55.28
2014-09-10T08:16:26.148Z,54.79
2014-09-10T08:17:30.839Z,54.54
2014-09-10T08:18:35.529Z,54.91
2014-09-10T08:19:40.204Z,56.58
2014-09-10T08:20:44.894Z,55.65
2014-09-10T08:21:49.570Z,55.73
2014-09-10T08:22:54.275Z,55.01
2014-09-10T08:23:59.262Z,55.24
2014-09-10T08:25:03.952Z,54.42
2014-09-10T08:26:08.625Z,54.2
2014-09-10T08:27:13.315Z,55.03
2014-09-10T08:28:18.301Z,54.37
2014-09-10T08:29:22.975Z,54
2014-09-10T08:30:27.665Z,53.17
2014-09-10T08:31:32.340Z,52.98
2014-09-10T08:32:37.325Z,52.84
2014-09-10T08:33:42.014Z,53.17
2014-09-10T08:34:47.002Z,52.79
2014-09-10T08:35:51.675Z,52.53
2014-09-10T08:36:56.365Z,52.96
2014-09-10T08:38:01.039Z,52.69
2014-09-10T08:39:05.729Z,52.7
2014-09-10T08:40:10.418Z,52.51
2014-09-10T08:41:15.092Z,52.62
2014-09-10T08:42:20.078Z,52.77
2014-09-10T08:43:25.065Z,52.31
2014-09-10T08:44:29.740Z,52.69
2014-09-10T08:45:34.428Z,52.56
2014-09-10T08:46:39.118Z,51.45
2014-09-10T08:47:43.792Z,51.3
2014-09-10T08:48:48.481Z,51.2
2014-09-10T08:49:53.170Z,51.25
2014-09-10T08:50:57.845Z,52.21
2014-09-10T08:52:02.534Z,53.67
2014-09-10T08:53:07.521Z,52.07
2014-09-10T08:54:12.195Z,51.57
2014-09-10T08:55:16.885Z,51.75
2014-09-10T08:56:21.574Z,52.2
2014-09-10T08:57:26.248Z,51.51
2014-09-10T08:58:30.938Z,50.07
2014-09-10T08:59:35.611Z,49.9
2014-09-10T09:00:40.301Z,49.9
2014-09-10T09:01:45.287Z,49.85
2014-09-10T09:02:49.961Z,51.16
2014-09-10T09:03:54.651Z,51.93
2014-09-10T09:04:59.638Z,51.04
2014-09-10T09:06:04.327Z,51.64
2014-09-10T09:07:09.314Z,49.99
2014-09-10T09:08:14.003Z,49.38
2014-09-10T09:09:18.693Z,50.02
2014-09-10T09:10:23.367Z,51.08
2014-09-10T09:11:28.056Z,53.1
2014-09-10T09:12:32.730Z,51.3
2014-09-10T09:13:37.421Z,50.13
2014-09-10T09:14:42.110Z,50.16
2014-09-10T09:15:46.783Z,50.65
2014-09-10T09:16:51.473Z,50.84
2014-09-10T09:17:56.163Z,51.09
2014-09-10T09:19:01.148Z,50.77
2014-09-10T09:20:05.823Z,53.01
2014-09-10T09:21:10.512Z,53.93
2014-09-10T09:22:15.482Z,52.78
2014-09-10T09:23:20.173Z,51.74
2014-09-10T09:24:24.862Z,52.08
2014-09-10T09:25:29.536Z,51.04
2014-09-10T09:26:34.226Z,54.7
2014-09-10T09:27:39.212Z,52.84
2014-09-10T09:28:43.886Z,50.48
2014-09-10T09:29:48.577Z,51.04
2014-09-10T09:30:53.562Z,51.29
2014-09-10T09:31:58.251Z,50.54
2014-09-10T09:33:03.223Z,53.04
2014-09-10T09:34:07.912Z,53.18
2014-09-10T09:35:12.899Z,53.05
2014-09-10T09:36:17.884Z,52.62
2014-09-10T09:37:22.575Z,50.81
2014-09-10T09:38:27.249Z,51.44
2014-09-10T09:39:31.938Z,51.82
2014-09-10T09:40:36.925Z,53.52
2014-09-10T09:41:41.615Z,52.41
2014-09-10T09:42:46.288Z,51.71
2014-09-10T09:43:50.979Z,51.66
2014-09-10T09:44:55.980Z,51.48
2014-09-10T09:46:00.670Z,50.29
2014-09-10T09:47:05.343Z,49.99
2014-09-10T09:48:10.033Z,49.84
2014-09-10T09:49:14.738Z,50.34
2014-09-10T09:50:19.443Z,51.72
2014-09-10T09:51:24.430Z,49.87
2014-09-10T09:52:29.416Z,50.24
2014-09-10T09:53:34.090Z,50.32
2014-09-10T09:54:39.092Z,50.07
2014-09-10T09:55:44.079Z,49.96
2014-09-10T09:56:48.769Z,49.04
2014-09-10T09:57:53.755Z,48.42
2014-09-10T09:58:58.445Z,48.97
2014-09-10T10:00:03.118Z,48.89
2014-09-10T10:01:07.808Z,49.54
2014-09-10T10:02:12.794Z,49.63
2014-09-10T10:03:17.484Z,49.15
2014-09-10T10:04:22.470Z,49.87
2014-09-10T10:05:27.176Z,47.94
2014-09-10T10:06:31.864Z,48.25
2014-09-10T10:07:36.555Z,47.26
2014-09-10T10:08:41.540Z,48.34
2014-09-10T10:09:46.215Z,48.93
2014-09-10T10:10:50.906Z,49.43
2014-09-10T10:11:55.891Z,49.04
2014-09-10T10:13:00.877Z,48.14
2014-09-10T10:14:05.567Z,50.28
2014-09-10T10:15:10.241Z,51.1
2014-09-10T10:16:14.243Z,49.43
2014-09-10T10:17:19.229Z,49.86
2014-09-10T10:18:23.920Z,50.17
2014-09-10T10:19:28.906Z,49.04
2014-09-10T10:20:33.891Z,49.08
2014-09-10T10:21:38.582Z,48.67
2014-09-10T10:22:43.270Z,48.77
2014-09-10T10:23:47.961Z,48.17
2014-09-10T10:24:52.947Z,48.14
2014-09-10T10:25:57.637Z,47.29
2014-09-10T10:27:02.326Z,46.67
2014-09-10T10:28:07.016Z,45.7
2014-09-10T10:29:11.706Z,46.76
2014-09-10T10:30:16.379Z,47.15
2014-09-10T10:31:21.366Z,46.73
2014-09-10T10:32:26.055Z,47.87
2014-09-10T10:33:31.042Z,48.25
2014-09-10T10:34:35.732Z,47.73
2014-09-10T10:35:40.420Z,48.58
2014-09-10T10:36:45.111Z,47.77
2014-09-10T10:37:49.784Z,49.61
2014-09-10T10:38:54.771Z,48.49
2014-09-10T10:39:58.773Z,49.8
2014-09-10T10:41:03.463Z,49.18
2014-09-10T10:42:08.136Z,49.66
2014-09-10T10:43:12.826Z,50.04
2014-09-10T10:44:17.516Z,48.29
2014-09-10T10:45:22.206Z,48.85
2014-09-10T10:46:26.879Z,47.73
2014-09-10T10:47:31.866Z,47.81
2014-09-10T10:48:36.556Z,47.95
2014-09-10T10:49:41.526Z,47.49
2014-09-10T10:50:46.216Z,47.32
2014-09-10T10:51:51.201Z,46.95
2014-09-10T10:52:55.876Z,46.23
2014-09-10T10:54:00.566Z,47.41
2014-09-10T10:55:05.255Z,47.43
2014-09-10T10:56:09.945Z,47.96
2014-09-10T10:57:14.915Z,47.43
2014-09-10T10:58:19.902Z,47.57
2014-09-10T10:59:24.592Z,47.24
2014-09-10T11:00:29.281Z,46.87
2014-09-10T11:01:33.955Z,48.11
2014-09-10T11:02:38.645Z,48.32
2014-09-10T11:03:43.631Z,47.84
2014-09-10T11:04:48.305Z,48.25
2014-09-10T11:05:52.995Z,49.18
2014-09-10T11:06:57.684Z,49.1
2014-09-10T11:08:02.358Z,47.64
2014-09-10T11:09:07.048Z,48.84
2014-09-10T11:10:12.034Z,47.49
2014-09-10T11:11:16.708Z,47.01
2014-09-10T11:12:21.398Z,45.93
2014-09-10T11:13:26.088Z,46.03
2014-09-10T11:14:30.777Z,45.83
2014-09-10T11:15:35.655Z,45.53
2014-09-10T11:16:40.937Z,45.29
2014-09-10T11:17:45.627Z,44.95
2014-09-10T11:18:50.301Z,44.44
2014-09-10T11:19:54.990Z,45.31
2014-09-10T11:20:58.992Z,46
2014-09-10T11:22:03.667Z,45.85
2014-09-10T11:23:08.356Z,45.2
2014-09-10T11:24:13.342Z,45.52
2014-09-10T11:25:18.016Z,45.3
2014-09-10T11:26:22.706Z,44.78
2014-09-10T11:27:27.395Z,44.75
2014-09-10T11:28:32.069Z,45.61
2014-09-10T11:29:36.759Z,45.58
2014-09-10T11:30:41.448Z,46.42
2014-09-10T11:31:46.435Z,46.19
2014-09-10T11:32:51.124Z,46.6
2014-09-10T11:33:55.814Z,46.66
2014-09-10T11:35:00.488Z,48.1
2014-09-10T11:36:05.475Z,47.7
2014-09-10T11:37:10.163Z,46.83
2014-09-10T11:38:15.135Z,45.95
2014-09-10T11:39:20.121Z,46.16
2014-09-10T11:40:24.827Z,46.06
2014-09-10T11:41:29.797Z,45.52
2014-09-10T11:42:34.487Z,45.5
2014-09-10T11:43:39.176Z,45.58
2014-09-10T11:44:43.866Z,45.87
2014-09-10T11:45:48.556Z,45.59
2014-09-10T11:46:53.245Z,45.25
2014-09-10T11:47:57.934Z,45.54
2014-09-10T11:49:02.922Z,45.43
2014-09-10T11:50:07.611Z,45.22
2014-09-10T11:51:12.301Z,45.77
2014-09-10T11:52:16.975Z,45.91
2014-09-10T11:53:22.258Z,46.29
2014-09-10T11:54:26.947Z,46.39
2014-09-10T11:55:31.637Z,46.77
2014-09-10T11:56:36.311Z,46.76
2014-09-10T11:57:41.297Z,45.88
2014-09-10T11:58:45.987Z,45.18
2014-09-10T11:59:50.974Z,46.5
2014-09-10T12:00:55.663Z,46.44
2014-09-10T12:02:00.353Z,46.77
2014-09-10T12:03:05.042Z,45.56
2014-09-10T12:04:09.732Z,46.42
2014-09-10T12:05:14.420Z,47.48
2014-09-10T12:06:19.095Z,46.6
2014-09-10T12:07:23.785Z,46.28
2014-09-10T12:08:28.770Z,45.96
2014-09-10T12:09:33.460Z,45.47
2014-09-10T12:10:38.135Z,45.91
2014-09-10T12:11:42.824Z,45.68
2014-09-10T12:12:47.515Z,45.67
2014-09-10T12:13:52.204Z,46.74
2014-09-10T12:14:56.877Z,46.34
2014-09-10T12:16:00.879Z,47.26
2014-09-10T12:17:05.585Z,47.51
2014-09-10T12:18:10.587Z,48.04
2014-09-10T12:19:15.260Z,47.01
2014-09-10T12:20:19.950Z,47
2014-09-10T12:21:24.624Z,46.05
2014-09-10T12:22:29.673Z,46.71
2014-09-10T12:23:34.362Z,46.51
2014-09-10T12:24:39.349Z,47.15
2014-09-10T12:25:44.023Z,47.27
2014-09-10T12:26:48.712Z,47.01
2014-09-10T12:27:53.699Z,46.77
2014-09-10T12:28:58.670Z,47.02
2014-09-10T12:30:03.359Z,47.1
2014-09-10T12:31:08.050Z,47.33
2014-09-10T12:32:12.738Z,46.62
2014-09-10T12:33:17.428Z,46.38
2014-09-10T12:34:22.118Z,48.25
2014-09-10T12:35:26.792Z,46.42
2014-09-10T12:36:31.778Z,45.69
2014-09-10T12:37:36.765Z,47.05
2014-09-10T12:38:41.454Z,46.01
2014-09-10T12:39:46.144Z,45.88
2014-09-10T12:40:51.130Z,46.23
2014-09-10T12:41:55.820Z,45.2
2014-09-10T12:43:00.509Z,45.33
2014-09-10T12:44:05.200Z,45.52
2014-09-10T12:45:09.888Z,46.33
2014-09-10T12:46:14.578Z,45.86
2014-09-10T12:47:18.877Z,45.56
2014-09-10T12:48:23.567Z,45.81
2014-09-10T12:49:27.584Z,45.63
2014-09-10T12:50:32.258Z,46.22
2014-09-10T12:51:37.541Z,45.75
2014-09-10T12:52:42.231Z,45.73
2014-09-10T12:53:46.920Z,45.73
2014-09-10T12:54:51.610Z,45.86
2014-09-10T12:55:56.300Z,45.42
2014-09-10T12:57:00.990Z,45.4
2014-09-10T12:58:05.663Z,45.55
2014-09-10T12:59:10.354Z,46.37
2014-09-10T13:00:15.042Z,46.02
2014-09-10T13:01:19.716Z,46.39
2014-09-10T13:02:24.406Z,47.33
2014-09-10T13:03:29.393Z,46.57
2014-09-10T13:04:34.081Z,45.96
2014-09-10T13:05:38.756Z,45.9
2014-09-10T13:06:43.445Z,45.88
2014-09-10T13:07:48.135Z,46.49
2014-09-10T13:08:52.825Z,46.61
2014-09-10T13:09:57.499Z,46.74
2014-09-10T13:11:02.188Z,48
2014-09-10T13:12:06.878Z,47.53
2014-09-10T13:13:11.567Z,46.34
2014-09-10T13:14:16.554Z,46.48
2014-09-10T13:15:21.243Z,46.82
2014-09-10T13:16:25.933Z,46.47
2014-09-10T13:17:30.623Z,45.77
2014-09-10T13:18:35.296Z,45.44
2014-09-10T13:19:40.283Z,46.3
2014-09-10T13:20:45.566Z,46.03
2014-09-10T13:21:50.256Z,45.07
2014-09-10T13:22:54.930Z,44.86
2014-09-10T13:23:59.619Z,45.52
2014-09-10T13:25:04.309Z,45.72
2014-09-10T13:26:08.998Z,45.69
2014-09-10T13:27:13.969Z,45.44
2014-09-10T13:28:18.660Z,44.75
2014-09-10T13:29:23.349Z,45.86
2014-09-10T13:30:28.334Z,45.24
2014-09-10T13:31:33.305Z,46.63
2014-09-10T13:32:37.995Z,48.36
2014-09-10T13:33:42.982Z,47.83
2014-09-10T13:34:47.952Z,46.73
2014-09-10T13:35:52.642Z,46.48
2014-09-10T13:36:57.331Z,46.77
2014-09-10T13:38:02.020Z,48.01
2014-09-10T13:39:06.695Z,47.13
2014-09-10T13:40:11.385Z,46.62
2014-09-10T13:41:16.075Z,46.92
2014-09-10T13:42:20.748Z,47.69
2014-09-10T13:43:25.439Z,49.57
2014-09-10T13:44:30.128Z,48.47
2014-09-10T13:45:34.817Z,46.42
2014-09-10T13:46:39.507Z,46.92
2014-09-10T13:47:44.180Z,46.37
2014-09-10T13:48:49.167Z,45.67
2014-09-10T13:49:53.857Z,46.04
2014-09-10T13:50:58.530Z,44.88
2014-09-10T13:52:03.220Z,45.6
2014-09-10T13:53:07.910Z,45.91
2014-09-10T13:54:12.599Z,44.67
2014-09-10T13:55:17.289Z,44.24
2014-09-10T13:56:21.964Z,44.53